Pagrindinis puslapis
METAR-TAF:

METAR-TAF

Oro uostai :

Heidrun, Norvegija

platuma: 65-19-30N, ilguma: 007-19-36E, Aukštis: 0 m

Dabartinis oras

Ataskaita buvo paskelbta 33 minutes, ne 22:20 UTC
Vėjas 33 kt iš Pietvakarių
Temperatūra 9°C
Drėgmė 71%
Slėgis 1012 hPa
Matomumas 10 km arba daugiau
Su prošvaistėmis ne aukštis 5000 ft

METAR: ENHE 052220Z 22033KT 9999 BKN050 09/04 Q1012 W///S4

Laikas: 00:53 (22:53 UTC)

Prognozė

Ataskaita buvo paskelbta 2 valandos ir 53 minutes, ne 20:00 UTC
Prognozė galioja nuo 05 metu 21 UTC su 06 metu 06 UTC
Vėjas 28 kt iš Pietų/Pietvakarių
Matomumas: 9000 m
Mažai debesys ne aukštis 2000 ft
Su prošvaistėmis ne aukštis 3000 ft

TAF: ENHE 052000Z 0521/0606 20028KT 9000 FEW020 BKN030

Orai ataskaitas ir orų prognozės (METAR, TAF).

turimą stotys yra geltonos ir raudonos taškus žemėlapyje.

Perkelti pele per norėdami pamatyti stoties vardą.

Tada spustelėkite, norėdami matyti oro stebėjimo ir prognozės.

Norėdami pakeisti žemėlapį: spustelėkite ant žalios mygtukų su juodo kryžiaus žemyn,; žalią mygtuką su brūkšneliu, jei norite nutolinti; arba žalių rodyklių gretimoms žemėlapius.


METAR-TAF: